Congress, Ohio
Current Conditions -  °F | °C
As of 3:56 AM on Thursday 18 Dec 2014 (Local Time) from KBJJ Reporting Station
Overcast Overcast  
Wind Chill: 17°   Ceiling: 1700
Heat Index: 27°   Visibility: 10mi
Dew Point: 21°   Wind: 10mph
Humidity: 78%   Direction: 300°WNW
Pressure: 30.2"   Gusts: NA
Location:  40.9441°N, 82.1006°W
Report Text: KBJJ 180856Z AUTO 30009KT 10SM OVC017 M03/M06 A3020 RMK AO2 SLP239 T10281061 50006 TSNO
Loading
Personal Weather Stations






























Interactive Weather Map New forecast layout! Learn more

10-Day Weather Forecast

Advertisements
Track Severe Weather on mobile